Terminal Aerodrome Forecast
Issued by NWS

Home | Current Version | Previous Version | Text Only | Print | Product List | Glossary On
Versions: 1 2 3 4 5 6 7 8 9 10 11 12 13 14
000
FTUS45 KABQ 210521
TAFFMN
TAF
KFMN 210521Z 2106/2206 VRB05KT P6SM SCT100 BKN150
     FM210900 09008KT P6SM BKN100
     FM211200 13006KT P6SM SCT120
     FM212200 27010KT P6SM VCTS BKN080CB
     FM220100 12007KT P6SM VCSH BKN090=

USA.gov is the U.S. government's official web portal to all federal, state and local government web resources and services.